Loch Maree — 3FVK4 — position and weather

sailwx.info

Track history (hours):
 
Tides and Currents Weather Stations Pressure Air Temp Water Temp Dewpoint Dewpoint Depression Visibility Wind Speed Wind Dir Waves Ship Positions

Loch Maree

Last reported at 2018-Jul-18 00:55 UTC. Time now 2018-Jul-18 01:07 UTC.
Position N 45°34' E 013°44'.

Length 177 m; draft 9 m.

Type: Ship. MMSI: 357759000.

Date/timePositionNaut miles runAvg speedWind from/ knotsBaromVisibWave heightAir tempDewpointWater temp
2018-Jul-18 00:55N 45°34' E 013°44'0 0.0
2018-Jul-18 00:28N 45°34' E 013°44'0 0.0
2018-Jul-17 23:58N 45°34' E 013°44'0 0.0
2018-Jul-17 23:28N 45°34' E 013°44'0 0.0
2018-Jul-17 22:55N 45°34' E 013°44'0 0.0
2018-Jul-17 22:28N 45°34' E 013°44'0 0.0
2018-Jul-17 21:55N 45°34' E 013°44'0 0.0
2018-Jul-17 21:28N 45°34' E 013°44'0 0.0
2018-Jul-17 20:55N 45°34' E 013°44'0 0.0
2018-Jul-17 20:28N 45°34' E 013°44'0 0.0
2018-Jul-17 19:55N 45°34' E 013°44'0 0.0
2018-Jul-17 19:25N 45°34' E 013°44'0 0.0
2018-Jul-17 18:58N 45°34' E 013°44'0 0.0
2018-Jul-17 18:28N 45°34' E 013°44'0 0.0
2018-Jul-17 17:55N 45°34' E 013°44'0 0.0
2018-Jul-17 17:28N 45°34' E 013°44'0 0.0
2018-Jul-17 16:58N 45°34' E 013°44'0 0.0
2018-Jul-17 16:28N 45°34' E 013°44'0 0.0
2018-Jul-17 15:58N 45°34' E 013°44'0 0.0
2018-Jul-17 15:22N 45°34' E 013°44'0 0.0
2018-Jul-17 14:55N 45°34' E 013°44'0 0.0
2018-Jul-17 14:28N 45°34' E 013°44'0 0.0
2018-Jul-17 13:58N 45°34' E 013°44'0 0.0
2018-Jul-17 13:28N 45°34' E 013°44'0 0.0
2018-Jul-17 12:58N 45°34' E 013°44'0 0.0
2018-Jul-17 12:25N 45°34' E 013°44'0 0.0
2018-Jul-17 11:58N 45°34' E 013°44'0 0.0
2018-Jul-17 11:25N 45°34' E 013°44'0 0.0
2018-Jul-17 10:58N 45°34' E 013°44'0 0.0
2018-Jul-17 10:28N 45°34' E 013°44'0 0.0
2018-Jul-17 09:58N 45°34' E 013°44'0 0.0
2018-Jul-17 09:28N 45°34' E 013°44'0 0.0
2018-Jul-17 08:58N 45°34' E 013°44'0 0.0
2018-Jul-17 08:25N 45°34' E 013°44'0 0.0
2018-Jul-17 07:58N 45°34' E 013°44'0 0.0
2018-Jul-17 07:25N 45°34' E 013°44'0 0.0
2018-Jul-17 06:58N 45°34' E 013°44'0 0.0
2018-Jul-17 06:25N 45°34' E 013°44'0 0.0
2018-Jul-17 05:55N 45°34' E 013°44'0 0.0
2018-Jul-17 05:25N 45°34' E 013°44'0 0.0
2018-Jul-17 04:55N 45°34' E 013°44'0 0.0
2018-Jul-17 04:28N 45°34' E 013°44'0 0.0
2018-Jul-17 03:58N 45°34' E 013°44'0 0.0
2018-Jul-17 03:25N 45°34' E 013°44'0 0.0
2018-Jul-17 02:58N 45°34' E 013°44'1 1.2
2018-Jul-17 02:27N 45°33' E 013°44'2 4.3
2018-Jul-17 02:00N 45°34' E 013°41'4 8.5
2018-Jul-17 01:30N 45°35' E 013°35'612.1
2018-Jul-17 01:00N 45°32' E 013°27'5 9.5
2018-Jul-17 00:30N 45°30' E 013°21'6 6.4
2018-Jul-16 23:31N 45°26' E 013°14'3 5.9
2018-Jul-16 23:00N 45°24' E 013°10'4 8.0
2018-Jul-16 22:31N 45°21' E 013°11'611.7
2018-Jul-16 22:00N 45°15' E 013°14'611.7
2018-Jul-16 21:31N 45°09' E 013°16'611.6
2018-Jul-16 21:00N 45°04' E 013°18'611.3
2018-Jul-16 20:30N 44°59' E 013°22'611.5
2018-Jul-16 20:01N 44°54' E 013°26'611.6
2018-Jul-16 19:30N 44°49' E 013°30'611.7
2018-Jul-16 19:01N 44°44' E 013°35'611.5
2018-Jul-16 18:30N 44°39' E 013°39'611.3
2018-Jul-16 18:00N 44°34' E 013°44'611.4
2018-Jul-16 17:31N 44°30' E 013°48'611.7
2018-Jul-16 17:01N 44°25' E 013°52'711.8
2018-Jul-16 16:23N 44°19' E 013°58'411.8
2018-Jul-16 16:00N 44°15' E 014°01'  
2018-Jul-14 06:38N 36°59' E 023°42'213.4
2018-Jul-14 06:30N 37°00' E 023°43'713.6
2018-Jul-14 06:01N 37°06' E 023°48'1014.0
2018-Jul-14 05:18N 37°14' E 023°54'713.6
2018-Jul-14 04:48N 37°20' E 023°58'413.4
2018-Jul-14 04:29N 37°24' E 024°01'1213.2
2018-Jul-14 03:33N 37°35' E 024°08'213.3
2018-Jul-14 03:24N 37°36' E 024°10'6813.0
2018-Jul-13 22:09N 38°33' E 024°58'213.7
2018-Jul-13 22:00N 38°35' E 024°59'713.4
2018-Jul-13 21:30N 38°41' E 025°03'713.3
2018-Jul-13 20:59N 38°47' E 025°07'2113.4
2018-Jul-13 19:23N 39°07' E 025°18'4013.4
2018-Jul-13 16:23N 39°43' E 025°41'513.4
2018-Jul-13 16:00N 39°48' E 025°43'913.5
2018-Jul-13 15:18N 39°55' E 025°51'  
Track history (hours):
 
Tides and Currents Weather Stations Pressure Air Temp Water Temp Dewpoint Dewpoint Depression Visibility Wind Speed Wind Dir Waves Ship Positions

Loch Maree

Last reported at 2018-Jul-18 00:55 UTC. Time now 2018-Jul-18 01:07 UTC.
Position N 45°34' E 013°44'.

Length 177 m; draft 9 m.

Type: Ship. MMSI: 357759000.

Date/timePositionNaut miles runAvg speedWind from/ knotsBaromVisibWave heightAir tempDewpointWater temp
2018-Jul-18 00:55N 45°34' E 013°44'0 0.0
2018-Jul-18 00:28N 45°34' E 013°44'0 0.0
2018-Jul-17 23:58N 45°34' E 013°44'0 0.0
2018-Jul-17 23:28N 45°34' E 013°44'0 0.0
2018-Jul-17 22:55N 45°34' E 013°44'0 0.0
2018-Jul-17 22:28N 45°34' E 013°44'0 0.0
2018-Jul-17 21:55N 45°34' E 013°44'0 0.0
2018-Jul-17 21:28N 45°34' E 013°44'0 0.0
2018-Jul-17 20:55N 45°34' E 013°44'0 0.0
2018-Jul-17 20:28N 45°34' E 013°44'0 0.0
2018-Jul-17 19:55N 45°34' E 013°44'0 0.0
2018-Jul-17 19:25N 45°34' E 013°44'0 0.0
2018-Jul-17 18:58N 45°34' E 013°44'0 0.0
2018-Jul-17 18:28N 45°34' E 013°44'0 0.0
2018-Jul-17 17:55N 45°34' E 013°44'0 0.0
2018-Jul-17 17:28N 45°34' E 013°44'0 0.0
2018-Jul-17 16:58N 45°34' E 013°44'0 0.0
2018-Jul-17 16:28N 45°34' E 013°44'0 0.0
2018-Jul-17 15:58N 45°34' E 013°44'0 0.0
2018-Jul-17 15:22N 45°34' E 013°44'0 0.0
2018-Jul-17 14:55N 45°34' E 013°44'0 0.0
2018-Jul-17 14:28N 45°34' E 013°44'0 0.0
2018-Jul-17 13:58N 45°34' E 013°44'0 0.0
2018-Jul-17 13:28N 45°34' E 013°44'0 0.0
2018-Jul-17 12:58N 45°34' E 013°44'0 0.0
2018-Jul-17 12:25N 45°34' E 013°44'0 0.0
2018-Jul-17 11:58N 45°34' E 013°44'0 0.0
2018-Jul-17 11:25N 45°34' E 013°44'0 0.0
2018-Jul-17 10:58N 45°34' E 013°44'0 0.0
2018-Jul-17 10:28N 45°34' E 013°44'0 0.0
2018-Jul-17 09:58N 45°34' E 013°44'0 0.0
2018-Jul-17 09:28N 45°34' E 013°44'0 0.0
2018-Jul-17 08:58N 45°34' E 013°44'0 0.0
2018-Jul-17 08:25N 45°34' E 013°44'0 0.0
2018-Jul-17 07:58N 45°34' E 013°44'0 0.0
2018-Jul-17 07:25N 45°34' E 013°44'0 0.0
2018-Jul-17 06:58N 45°34' E 013°44'0 0.0
2018-Jul-17 06:25N 45°34' E 013°44'0 0.0
2018-Jul-17 05:55N 45°34' E 013°44'0 0.0
2018-Jul-17 05:25N 45°34' E 013°44'0 0.0
2018-Jul-17 04:55N 45°34' E 013°44'0 0.0
2018-Jul-17 04:28N 45°34' E 013°44'0 0.0
2018-Jul-17 03:58N 45°34' E 013°44'0 0.0
2018-Jul-17 03:25N 45°34' E 013°44'0 0.0
2018-Jul-17 02:58N 45°34' E 013°44'1 1.2
2018-Jul-17 02:27N 45°33' E 013°44'2 4.3
2018-Jul-17 02:00N 45°34' E 013°41'4 8.5
2018-Jul-17 01:30N 45°35' E 013°35'612.1
2018-Jul-17 01:00N 45°32' E 013°27'5 9.5
2018-Jul-17 00:30N 45°30' E 013°21'6 6.4
2018-Jul-16 23:31N 45°26' E 013°14'3 5.9
2018-Jul-16 23:00N 45°24' E 013°10'4 8.0
2018-Jul-16 22:31N 45°21' E 013°11'611.7
2018-Jul-16 22:00N 45°15' E 013°14'611.7
2018-Jul-16 21:31N 45°09' E 013°16'611.6
2018-Jul-16 21:00N 45°04' E 013°18'611.3
2018-Jul-16 20:30N 44°59' E 013°22'611.5
2018-Jul-16 20:01N 44°54' E 013°26'611.6
2018-Jul-16 19:30N 44°49' E 013°30'611.7
2018-Jul-16 19:01N 44°44' E 013°35'611.5
2018-Jul-16 18:30N 44°39' E 013°39'611.3
2018-Jul-16 18:00N 44°34' E 013°44'611.4
2018-Jul-16 17:31N 44°30' E 013°48'611.7
2018-Jul-16 17:01N 44°25' E 013°52'711.8
2018-Jul-16 16:23N 44°19' E 013°58'411.8
2018-Jul-16 16:00N 44°15' E 014°01'  
2018-Jul-14 06:38N 36°59' E 023°42'213.4
2018-Jul-14 06:30N 37°00' E 023°43'713.6
2018-Jul-14 06:01N 37°06' E 023°48'1014.0
2018-Jul-14 05:18N 37°14' E 023°54'713.6
2018-Jul-14 04:48N 37°20' E 023°58'413.4
2018-Jul-14 04:29N 37°24' E 024°01'1213.2
2018-Jul-14 03:33N 37°35' E 024°08'213.3
2018-Jul-14 03:24N 37°36' E 024°10'6813.0
2018-Jul-13 22:09N 38°33' E 024°58'213.7
2018-Jul-13 22:00N 38°35' E 024°59'713.4
2018-Jul-13 21:30N 38°41' E 025°03'713.3
2018-Jul-13 20:59N 38°47' E 025°07'2113.4
2018-Jul-13 19:23N 39°07' E 025°18'4013.4
2018-Jul-13 16:23N 39°43' E 025°41'513.4
2018-Jul-13 16:00N 39°48' E 025°43'913.5
2018-Jul-13 15:18N 39°55' E 025°51'  

Dump ship's entire track history